首页
METAR-TAF:

METAR-TAF

机场 :

马里昂, 南卡罗来纳州, 美国

纬度: 34-10-52N, 经度: 079-20-05W, 海拔: 28米

当前天气观测

该预报发布于24分钟前的12:55 UTC
风速4节,风向西转西南
温度 26°C
湿度 84%
气压 1016 hPa
能見度: 8.0公里
天空无云

METAR: KMAO 171255Z AUTO 24004KT 5SM HZ CLR 26/23 A3001 RMK AO2

时间: 09:19 (13:19 UTC)


TAF: 丢失

超过4000个机场的气象观测和天气预报(METAR&TAF报告)。

可查询的气象台以黄色和红色小点在地图上表示。

将鼠标移到小点上方,可查看气象台名称。

然后点击查看天气观测和预报。

如需切换地图:点击带黑十字的绿色按钮放大地图;点击带横线的绿色按钮缩小地图;或者点击绿色箭头查看邻近地区的地图。


METAR-TAF: